Weather at Highwood Livestock Auction Airport [CLOSED]

Public forecast

Using degrees Celsius for public forecast. Weather courtesy of forecast.io.

Closest aviation weather report (METAR) to Highwood Livestock Auction Airport

Closest report is Calgary International Airport, 28.6 nm (52.9 km) NNW.

2023/02/01 06:00 (retrieved 32 minutes ago)

CYYC 010600Z 19005KT 10SM FEW220 M11/M12 A2976 RMK CI2 SLP150

Closest aviation forecast (TAF) to Highwood Livestock Auction Airport

Closest forecast is Calgary International Airport, 28.6 nm (52.9 km) NNW.

2023/02/01 06:42 (retrieved 0 seconds ago)

TAF CYYC 010540Z 0106/0206 18005KT P6SM FEW080 SCT200 PROB30 0106/0112 1SM BR FM011200 27008KT P6SM FEW200 FM011600 27008KT P6SM SCT025 BKN080 TEMPO 0116/0120 5SM -SN BKN020 OVC080 FM012000 01015KT 5SM -SN OVC025 TEMPO 0120/0206 2SM -SN OVC020 RMK NXT FCST BY 010900Z